Geroi Shipki — EOIB — position and weather

sailwx.info

Track history (hours):
 
Tides and Currents Weather Stations Pressure Air Temp Water Temp Dewpoint Dewpoint Depression Visibility Wind Speed Wind Dir Waves Ship Positions

Geroi Shipki

Last reported at 2014-Sep-14 15:12 UTC. Time now 2014-Sep-18 23:49 UTC.
Position N 44°01' E 034°10'.

Length 184 m; draft 6.2 m.

Type: Cargo ship. MMSI: 272976000.

Date/timePositionNaut miles runAvg speedWind from/ knotsBaromVisibWave heightAir tempDewpointWater temp
2014-Sep-14 15:12N 44°01' E 034°10'8 8.0
2014-Sep-14 14:10N 44°03' E 033°59'56 8.2
2014-Sep-14 07:23N 44°38' E 032°59'96 8.9
2014-Sep-13 20:34N 45°50' E 031°28'  
2014-Sep-11 07:31N 41°21' E 029°15'2310.7
2014-Sep-11 05:23N 41°01' E 028°60'8 8.0
2014-Sep-11 04:25N 40°53' E 029°01'6 7.5
2014-Sep-11 03:33N 40°47' E 029°02'4 1.6
2014-Sep-11 01:19N 40°43' E 029°04'2 0.7
2014-Sep-10 22:31N 40°44' E 029°06'1 0.7
2014-Sep-10 21:03N 40°45' E 029°07'610.6
2014-Sep-10 20:30N 40°45' E 029°14'1210.6
2014-Sep-10 19:20N 40°45' E 029°31'  
Track history (hours):
 
Tides and Currents Weather Stations Pressure Air Temp Water Temp Dewpoint Dewpoint Depression Visibility Wind Speed Wind Dir Waves Ship Positions

Geroi Shipki

Last reported at 2014-Sep-14 15:12 UTC. Time now 2014-Sep-18 23:49 UTC.
Position N 44°01' E 034°10'.

Length 184 m; draft 6.2 m.

Type: Cargo ship. MMSI: 272976000.

Date/timePositionNaut miles runAvg speedWind from/ knotsBaromVisibWave heightAir tempDewpointWater temp
2014-Sep-14 15:12N 44°01' E 034°10'8 8.0
2014-Sep-14 14:10N 44°03' E 033°59'56 8.2
2014-Sep-14 07:23N 44°38' E 032°59'96 8.9
2014-Sep-13 20:34N 45°50' E 031°28'  
2014-Sep-11 07:31N 41°21' E 029°15'2310.7
2014-Sep-11 05:23N 41°01' E 028°60'8 8.0
2014-Sep-11 04:25N 40°53' E 029°01'6 7.5
2014-Sep-11 03:33N 40°47' E 029°02'4 1.6
2014-Sep-11 01:19N 40°43' E 029°04'2 0.7
2014-Sep-10 22:31N 40°44' E 029°06'1 0.7
2014-Sep-10 21:03N 40°45' E 029°07'610.6
2014-Sep-10 20:30N 40°45' E 029°14'1210.6
2014-Sep-10 19:20N 40°45' E 029°31'  

Dump ship's entire track history